Time;durP1;ratioP1;P1;durP2;ratioP2;P2;SDS_P1;SDS_P2;PMS_P1;PMS_P2;Temp;Humidity;BMP_temperature;BMP_pressure;BME280_temperature;BME280_humidity;BME280_pressure;Samples;Min_cycle;Max_cycle;Signal;HPM_P1;HPM_P2
2023/10/11 00:00:24;;;;;;;13.18;5.70;;;16.70;99.90;;;;;;4913409;29;20058;-88
2023/10/11 00:05:54;;;;;;;14.93;5.85;;;16.80;99.90;;;;;;4881595;29;20467;-88
2023/10/11 00:08:40;;;;;;;16.30;6.43;;;17.20;99.90;;;;;;4914653;29;20041;-88
2023/10/11 00:11:27;;;;;;;14.52;6.22;;;16.60;99.90;;;;;;4896123;29;20099;-87
2023/10/11 00:13:54;;;;;;;15.30;6.03;;;16.70;99.90;;;;;;4900085;29;20067;-87
2023/10/11 00:16:27;;;;;;;16.00;6.53;;;16.60;99.90;;;;;;4899572;29;20485;-87
2023/10/11 00:18:55;;;;;;;18.92;6.55;;;16.50;99.90;;;;;;4900161;29;20415;-88
2023/10/11 00:21:58;;;;;;;14.98;6.40;;;17.10;99.90;;;;;;4900176;29;20127;-87
2023/10/11 00:24:24;;;;;;;12.25;6.13;;;16.00;99.90;;;;;;4930293;29;20134;-87
2023/10/11 00:26:50;;;;;;;14.95;6.30;;;17.30;99.90;;;;;;4931844;29;20155;-88
2023/10/11 00:29:19;;;;;;;16.77;7.32;;;16.40;99.90;;;;;;4900113;29;20059;-87
2023/10/11 00:31:45;;;;;;;15.20;6.95;;;16.40;99.90;;;;;;4899057;29;20044;-87
2023/10/11 00:34:12;;;;;;;15.77;6.60;;;16.50;99.90;;;;;;4899405;29;20099;-87
2023/10/11 00:36:58;;;;;;;17.02;6.65;;;17.30;99.90;;;;;;4859116;29;20064;-88
2023/10/11 00:39:31;;;;;;;19.27;6.55;;;16.30;99.90;;;;;;4899355;29;20389;-87
2023/10/11 00:42:27;;;;;;;15.23;6.47;;;16.40;99.90;;;;;;4881302;29;20084;-88
2023/10/11 00:44:56;;;;;;;16.75;6.68;;;16.10;99.90;;;;;;4877003;29;20083;-87
2023/10/11 00:47:51;;;;;;;16.77;7.32;;;16.30;99.90;;;;;;4877653;29;20443;-87
2023/10/11 00:50:35;;;;;;;14.27;6.90;;;16.00;99.90;;;;;;4877382;29;20513;-88
2023/10/11 00:53:35;;;;;;;17.95;7.10;;;16.80;99.90;;;;;;4877243;29;20049;-87
2023/10/11 00:56:07;;;;;;;13.48;7.15;;;16.80;99.90;;;;;;4878484;29;20052;-88
2023/10/11 00:58:46;;;;;;;15.07;7.22;;;16.30;99.90;;;;;;4877259;29;20056;-88
2023/10/11 01:01:18;;;;;;;20.25;7.63;;;16.20;99.90;;;;;;4871074;29;20045;-87
2023/10/11 01:04:02;;;;;;;15.25;7.20;;;16.30;99.90;;;;;;4877487;29;20068;-88
2023/10/11 01:06:43;;;;;;;17.73;8.05;;;16.30;99.90;;;;;;4876961;29;20131;-87
2023/10/11 01:09:24;;;;;;;16.88;7.18;;;16.20;99.90;;;;;;4877996;29;20135;-88
2023/10/11 01:12:05;;;;;;;17.23;7.13;;;17.20;99.90;;;;;;4877117;29;20127;-87
2023/10/11 01:14:56;;;;;;;16.85;7.80;;;16.20;99.90;;;;;;4877690;29;20048;-87
2023/10/11 01:17:40;;;;;;;14.40;7.35;;;16.20;99.90;;;;;;4977708;24;20139;-87
2023/10/11 01:20:21;;;;;;;19.83;7.97;;;16.90;99.90;;;;;;4919375;29;20051;-88
2023/10/11 01:22:58;;;;;;;16.58;7.50;;;16.20;99.90;;;;;;4887856;29;20127;-88
2023/10/11 01:25:33;;;;;;;14.45;7.53;;;16.70;99.90;;;;;;4886850;29;20400;-87
2023/10/11 01:28:14;;;;;;;17.40;8.48;;;16.90;99.90;;;;;;4917387;29;20084;-87
2023/10/11 01:30:51;;;;;;;19.75;8.40;;;16.20;99.90;;;;;;4886805;29;20063;-87
2023/10/11 01:33:29;;;;;;;18.55;8.52;;;16.50;99.90;;;;;;4905030;29;20411;-87
2023/10/11 01:36:12;;;;;;;18.30;7.95;;;16.10;99.90;;;;;;4918344;29;20056;-87
2023/10/11 01:39:02;;;;;;;16.55;7.85;;;16.90;99.90;;;;;;4887470;29;20052;-88
2023/10/11 01:41:27;;;;;;;16.77;7.93;;;17.20;99.90;;;;;;4885219;29;20449;-87
2023/10/11 01:43:56;;;;;;;15.85;8.27;;;16.10;99.90;;;;;;4917854;29;20080;-87
2023/10/11 01:46:35;;;;;;;15.20;7.80;;;16.50;99.90;;;;;;4917580;29;20067;-88
2023/10/11 01:49:01;;;;;;;16.50;8.20;;;17.10;99.90;;;;;;4917430;29;20104;-88
2023/10/11 01:51:48;;;;;;;15.88;8.18;;;16.60;99.90;;;;;;4917554;29;20040;-88
2023/10/11 01:54:34;;;;;;;17.17;8.30;;;15.90;99.90;;;;;;4917117;29;20064;-88
2023/10/11 01:57:01;;;;;;;16.25;8.02;;;16.00;99.90;;;;;;4887313;29;20502;-88
2023/10/11 01:59:41;;;;;;;16.65;8.57;;;16.40;99.90;;;;;;4896613;29;20104;-88
2023/10/11 02:02:09;;;;;;;15.98;8.07;;;17.00;99.90;;;;;;4916613;29;20489;-88
2023/10/11 02:04:41;;;;;;;20.27;8.40;;;16.50;99.90;;;;;;4886643;29;20041;-88
2023/10/11 02:07:16;;;;;;;19.85;8.35;;;15.80;99.90;;;;;;4886799;29;20061;-88
2023/10/11 02:09:43;;;;;;;17.25;8.48;;;16.70;99.90;;;;;;4901915;29;20056;-87
2023/10/11 02:12:22;;;;;;;18.25;8.05;;;15.90;99.90;;;;;;4885974;29;20556;-87
2023/10/11 02:14:49;;;;;;;19.13;8.98;;;16.80;99.90;;;;;;4886715;29;20048;-87
2023/10/11 02:17:23;;;;;;;16.30;8.60;;;16.40;99.90;;;;;;4885090;29;20056;-87
2023/10/11 02:20:29;;;;;;;19.33;8.77;;;16.00;99.90;;;;;;4903029;29;20083;-87
2023/10/11 02:23:13;;;;;;;15.85;8.35;;;15.80;99.90;;;;;;4917333;29;20079;-87
2023/10/11 02:25:41;;;;;;;16.83;8.73;;;15.80;99.90;;;;;;4902134;29;20060;-87
2023/10/11 02:28:21;;;;;;;16.67;8.63;;;15.70;99.90;;;;;;4882568;29;20045;-87
2023/10/11 02:30:49;;;;;;;16.33;8.80;;;16.70;99.90;;;;;;4882991;29;20481;-87
2023/10/11 02:33:20;;;;;;;19.30;8.85;;;16.60;99.90;;;;;;4883431;29;20508;-88
2023/10/11 02:35:56;;;;;;;16.98;8.40;;;15.70;99.90;;;;;;4884247;29;20052;-87
2023/10/11 02:45:07;;;;;;;19.58;8.82;;;15.50;99.90;;;;;;4899744;29;20039;-87
2023/10/11 02:47:36;;;;;;;17.55;8.55;;;15.60;99.90;;;;;;4883226;29;20397;-87
2023/10/11 02:50:05;;;;;;;21.42;9.43;;;16.60;99.90;;;;;;4883442;29;20067;-87
2023/10/11 02:52:42;;;;;;;18.40;8.93;;;15.50;99.90;;;;;;4882110;29;20063;-88
2023/10/11 03:01:40;;;;;;;20.08;9.02;;;15.50;99.90;;;;;;4920456;23;20136;-88
2023/10/11 03:04:15;;;;;;;16.92;8.75;;;15.40;99.90;;;;;;4903933;29;20091;-88
2023/10/11 03:06:56;;;;;;;17.40;9.70;;;15.00;99.90;;;;;;4901538;29;20134;-87
2023/10/11 03:09:27;;;;;;;19.25;9.38;;;15.60;99.90;;;;;;4901636;29;20066;-87
2023/10/11 03:14:21;;;;;;;18.95;9.57;;;15.30;99.90;;;;;;4941079;23;20052;-87
2023/10/11 03:16:55;;;;;;;19.00;8.95;;;15.30;99.90;;;;;;4920167;29;20423;-88
2023/10/11 03:19:25;;;;;;;17.63;8.73;;;15.30;99.90;;;;;;4919289;29;20502;-88
2023/10/11 03:21:53;;;;;;;17.65;9.00;;;15.20;99.90;;;;;;4920156;29;20050;-87
2023/10/11 03:24:20;;;;;;;18.48;8.82;;;15.20;99.90;;;;;;4919727;29;20498;-87
2023/10/11 03:27:01;;;;;;;19.50;9.20;;;15.20;99.90;;;;;;4919033;29;20080;-87
2023/10/11 03:29:30;;;;;;;16.27;9.15;;;15.50;99.90;;;;;;4919972;29;20040;-88
2023/10/11 03:32:11;;;;;;;18.23;8.45;;;15.70;99.90;;;;;;4919409;29;20051;-88
2023/10/11 03:34:49;;;;;;;18.88;9.20;;;15.90;99.90;;;;;;4919552;29;20507;-88
2023/10/11 03:37:18;;;;;;;18.45;9.27;;;15.50;99.90;;;;;;4919306;29;20103;-87
2023/10/11 03:40:11;;;;;;;16.92;9.05;;;15.20;99.90;;;;;;4935763;29;20051;-88
2023/10/11 03:42:59;;;;;;;19.58;8.82;;;15.20;99.90;;;;;;4920028;29;20050;-88
2023/10/11 03:45:27;;;;;;;20.98;9.77;;;16.10;99.90;;;;;;4919580;29;20051;-88
2023/10/11 03:48:11;;;;;;;18.48;9.52;;;16.10;99.90;;;;;;4918402;29;20142;-88
2023/10/11 03:50:47;;;;;;;19.38;9.65;;;15.10;99.90;;;;;;4919721;29;20472;-87
2023/10/11 03:53:14;;;;;;;16.02;8.35;;;15.10;99.90;;;;;;4919237;29;20476;-88
2023/10/11 03:55:58;;;;;;;17.75;8.85;;;15.60;99.90;;;;;;4951029;29;20048;-88
2023/10/11 04:03:43;;;;;;;17.35;8.20;;;15.50;99.90;;;;;;4935963;29;20065;-88
2023/10/11 04:06:15;;;;;;;17.02;8.20;;;15.00;99.90;;;;;;4906237;23;20394;-89
2023/10/11 04:09:00;;;;;;;17.83;8.30;;;15.50;99.90;;;;;;4896257;29;20050;-86
2023/10/11 04:11:37;;;;;;;22.02;9.40;;;15.00;99.90;;;;;;4896603;29;20045;-88
2023/10/11 04:14:12;;;;;;;16.83;8.50;;;15.00;99.90;;;;;;4897153;29;20048;-87
2023/10/11 04:16:38;;;;;;;19.38;8.68;;;14.90;99.90;;;;;;4897662;29;20036;-87
2023/10/11 04:19:08;;;;;;;16.95;8.52;;;15.00;99.90;;;;;;4897215;29;20052;-88
2023/10/11 04:21:53;;;;;;;19.48;8.30;;;15.00;99.90;;;;;;4896882;29;20055;-87
2023/10/11 04:24:22;;;;;;;15.65;8.52;;;15.10;99.90;;;;;;4898085;29;20060;-88
2023/10/11 04:30:17;;;;;;;15.85;8.20;;;15.20;99.90;;;;;;4915135;29;20143;-88
2023/10/11 04:32:46;;;;;;;18.27;8.98;;;15.60;99.90;;;;;;4895167;29;20528;-87
2023/10/11 04:35:21;;;;;;;16.63;8.57;;;15.20;99.90;;;;;;4897170;29;20063;-88
2023/10/11 04:38:04;;;;;;;19.00;10.10;;;15.00;99.90;;;;;;4899472;29;20060;-88
2023/10/11 04:40:47;;;;;;;21.35;10.95;;;15.00;99.90;;;;;;4897221;29;20457;-87
2023/10/11 04:43:24;;;;;;;26.08;9.82;;;16.10;99.90;;;;;;4895878;29;20548;-88
2023/10/11 04:45:54;;;;;;;20.05;8.65;;;15.50;99.90;;;;;;4897236;29;20051;-88
2023/10/11 04:48:36;;;;;;;17.27;8.23;;;15.60;99.90;;;;;;4898114;29;20052;-88
2023/10/11 04:51:04;;;;;;;18.33;8.15;;;15.00;99.90;;;;;;4895866;29;20045;-88
2023/10/11 04:54:13;;;;;;;20.80;8.68;;;15.00;99.90;;;;;;4896747;29;20044;-88
2023/10/11 05:02:58;;;;;;;17.55;8.40;;;14.90;99.90;;;;;;4915258;29;20066;-88
2023/10/11 05:05:18;;;;;;;18.25;8.98;;;16.10;99.90;;;;;;4929830;23;20047;-88
2023/10/11 05:08:21;;;;;;;16.80;8.57;;;15.00;99.90;;;;;;4925567;29;20080;-89
2023/10/11 05:10:50;;;;;;;20.13;9.00;;;15.00;99.90;;;;;;4933649;29;20043;-88
2023/10/11 05:13:36;;;;;;;16.80;8.32;;;15.40;99.90;;;;;;4919546;29;20054;-87
2023/10/11 05:16:17;;;;;;;24.10;9.38;;;15.40;99.90;;;;;;4918243;29;20110;-88
2023/10/11 05:19:05;;;;;;;18.20;8.88;;;15.80;99.90;;;;;;4917968;29;20093;-87
2023/10/11 05:21:53;;;;;;;19.23;9.32;;;15.50;99.90;;;;;;4918073;29;20048;-88
2023/10/11 05:30:26;;;;;;;20.63;9.60;;;15.90;99.90;;;;;;4934680;29;20048;-88
2023/10/11 05:36:14;;;;;;;23.70;9.73;;;15.60;99.90;;;;;;4927737;29;20056;-87
2023/10/11 05:52:37;;;;;;;;;;;15.00;99.90;;;;;;4899695;29;20496;-88
2023/10/11 05:55:06;;;;;;;21.08;9.98;;;15.20;99.90;;;;;;4903923;29;19938;-82
2023/10/11 05:57:32;;;;;;;23.17;10.65;;;15.00;99.90;;;;;;4917035;29;20048;-83
2023/10/11 06:00:10;;;;;;;20.48;10.10;;;15.10;99.90;;;;;;4918115;29;20102;-83
2023/10/11 06:02:38;;;;;;;20.27;10.25;;;15.70;99.90;;;;;;4919058;29;20042;-83
2023/10/11 06:05:10;;;;;;;24.77;10.40;;;15.30;99.90;;;;;;4921775;29;20416;-83
2023/10/11 06:07:37;;;;;;;23.45;10.25;;;14.90;99.90;;;;;;4920263;29;20135;-85
2023/10/11 06:10:08;;;;;;;24.58;10.82;;;14.90;99.90;;;;;;4921536;29;20044;-84
2023/10/11 06:12:35;;;;;;;20.58;10.63;;;14.90;99.90;;;;;;4920998;29;20051;-84
2023/10/11 06:15:10;;;;;;;23.85;10.80;;;15.60;99.90;;;;;;4920279;29;20455;-83
2023/10/11 06:17:49;;;;;;;24.25;11.25;;;14.80;99.90;;;;;;4921107;29;20415;-84
2023/10/11 06:20:29;;;;;;;23.83;11.43;;;14.80;99.90;;;;;;4920915;29;20399;-83
2023/10/11 06:22:56;;;;;;;22.33;12.18;;;15.50;99.90;;;;;;4920907;29;20047;-82
2023/10/11 06:25:49;;;;;;;20.65;10.13;;;15.80;99.90;;;;;;4920791;29;20060;-83
2023/10/11 06:28:31;;;;;;;20.73;11.52;;;14.60;99.90;;;;;;4920468;29;20047;-82
2023/10/11 06:31:00;;;;;;;20.73;10.85;;;15.80;99.90;;;;;;4920613;29;20131;-82
2023/10/11 06:33:45;;;;;;;20.50;10.90;;;14.90;99.90;;;;;;4920492;29;20059;-82
2023/10/11 06:36:14;;;;;;;23.35;11.60;;;14.90;99.90;;;;;;4918209;29;20179;-82
2023/10/11 06:38:41;;;;;;;21.85;11.20;;;15.70;99.90;;;;;;4927703;23;20404;-82
2023/10/11 06:43:51;;;;;;;;;;;14.90;99.90;;;;;;4916978;29;20079;-82
2023/10/11 06:46:17;;;;;;;20.42;10.70;;;15.30;99.90;;;;;;4917025;29;20276;-82
2023/10/11 06:48:42;;;;;;;23.00;11.05;;;15.00;99.90;;;;;;4908002;24;20058;-82
2023/10/11 06:51:08;;;;;;;22.40;11.15;;;15.00;99.90;;;;;;4900521;29;20052;-82
2023/10/11 06:53:35;;;;;;;21.95;10.90;;;15.00;99.90;;;;;;4901680;29;20055;-82
2023/10/11 06:56:16;;;;;;;22.33;11.07;;;15.00;99.90;;;;;;4901376;29;20054;-83
2023/10/11 06:58:44;;;;;;;23.83;12.52;;;15.20;99.90;;;;;;4932416;29;20048;-82
2023/10/11 07:01:13;;;;;;;24.88;11.68;;;15.50;99.90;;;;;;4901022;29;20044;-83
2023/10/11 07:03:42;;;;;;;22.52;11.50;;;16.20;99.90;;;;;;4900716;29;20044;-83
2023/10/11 07:06:25;;;;;;;24.95;11.82;;;16.00;99.90;;;;;;4901025;29;20045;-83
2023/10/11 07:08:53;;;;;;;22.70;10.68;;;15.50;99.90;;;;;;4901512;29;20044;-84
2023/10/11 07:14:25;;;;;;;18.23;11.07;;;15.30;99.90;;;;;;4874059;29;20381;-83
2023/10/11 07:16:57;;;;;;;19.95;11.80;;;15.40;99.90;;;;;;4901114;29;20052;-84
2023/10/11 07:19:23;;;;;;;22.65;11.43;;;15.80;99.90;;;;;;4900330;29;20043;-84
2023/10/11 07:22:02;;;;;;;23.15;11.60;;;15.70;99.90;;;;;;4900684;29;20048;-85
2023/10/11 07:24:55;;;;;;;22.60;11.75;;;16.20;99.90;;;;;;4881639;29;20053;-84
2023/10/11 07:27:37;;;;;;;25.27;13.45;;;16.20;99.90;;;;;;4895391;29;20048;-85
2023/10/11 07:30:15;;;;;;;23.23;11.50;;;15.60;99.90;;;;;;4904144;23;20516;-83
2023/10/11 07:32:44;;;;;;;23.23;12.40;;;15.40;99.90;;;;;;4880316;29;20098;-85
2023/10/11 07:35:18;;;;;;;24.52;12.23;;;16.00;99.90;;;;;;4877001;29;20056;-83
2023/10/11 07:37:44;;;;;;;22.63;11.77;;;15.40;99.90;;;;;;4881949;29;20437;-83
2023/10/11 07:40:18;;;;;;;21.15;11.98;;;15.40;99.90;;;;;;4880854;29;20045;-84
2023/10/11 07:42:44;;;;;;;22.45;11.82;;;15.10;99.90;;;;;;4881703;29;20052;-85
2023/10/11 07:45:12;;;;;;;23.70;12.10;;;15.80;99.90;;;;;;4882302;29;20092;-85
2023/10/11 07:47:51;;;;;;;23.90;12.57;;;15.50;99.90;;;;;;4897873;29;20051;-85
2023/10/11 07:50:22;;;;;;;25.60;12.95;;;15.80;99.90;;;;;;4881527;29;20053;-83
2023/10/11 07:52:59;;;;;;;25.10;13.00;;;15.60;99.90;;;;;;4896939;29;20099;-84
2023/10/11 07:55:26;;;;;;;30.45;13.88;;;16.00;99.90;;;;;;4881653;29;20119;-84
2023/10/11 07:57:51;;;;;;;25.63;14.30;;;16.50;99.90;;;;;;4898592;29;20135;-84
2023/10/11 08:00:41;;;;;;;27.45;14.05;;;16.60;99.90;;;;;;4897653;29;20128;-84
2023/10/11 08:03:08;;;;;;;29.05;13.45;;;15.80;99.90;;;;;;4882084;29;20061;-85
2023/10/11 08:05:46;;;;;;;27.58;14.48;;;15.90;99.90;;;;;;4881948;29;20075;-84
2023/10/11 08:08:15;;;;;;;29.10;14.60;;;16.80;99.90;;;;;;4880866;29;20045;-85
2023/10/11 08:10:49;;;;;;;27.08;14.63;;;16.00;99.90;;;;;;4882155;29;20056;-84
2023/10/11 08:13:24;;;;;;;29.30;14.73;;;15.90;99.90;;;;;;4912107;29;20056;-84
2023/10/11 08:15:58;;;;;;;29.52;13.68;;;16.00;99.90;;;;;;4881001;29;20083;-84
2023/10/11 08:18:26;;;;;;;22.95;14.48;;;15.90;99.90;;;;;;4881334;29;20504;-84
2023/10/11 08:20:51;;;;;;;30.77;15.95;;;16.00;99.90;;;;;;4897320;29;20063;-84
2023/10/11 08:23:28;;;;;;;26.92;14.80;;;16.10;99.90;;;;;;4881075;29;20044;-84
2023/10/11 08:25:58;;;;;;;30.73;16.02;;;16.80;99.90;;;;;;4880614;29;20044;-84
2023/10/11 08:28:35;;;;;;;30.80;16.15;;;16.50;99.90;;;;;;4910931;29;20041;-83
2023/10/11 08:31:01;;;;;;;28.15;15.82;;;16.00;99.90;;;;;;4881425;29;20438;-84
2023/10/11 08:33:31;;;;;;;28.42;15.80;;;16.00;99.90;;;;;;4880862;29;20055;-84
2023/10/11 08:35:57;;;;;;;29.60;15.85;;;16.10;99.90;;;;;;4880696;29;20437;-84
2023/10/11 08:38:26;;;;;;;33.15;16.60;;;16.10;99.90;;;;;;4880853;29;20416;-84
2023/10/11 08:40:58;;;;;;;30.05;17.17;;;16.10;99.90;;;;;;4881214;29;20460;-84
2023/10/11 08:43:25;;;;;;;33.28;17.05;;;16.00;99.90;;;;;;4880515;29;20047;-84
2023/10/11 08:46:09;;;;;;;34.95;17.45;;;16.00;99.90;;;;;;4880828;29;20048;-84
2023/10/11 08:48:38;;;;;;;34.95;17.83;;;16.30;99.90;;;;;;4881343;29;20446;-84
2023/10/11 08:51:11;;;;;;;32.92;17.50;;;16.20;99.90;;;;;;4911702;29;20062;-84
2023/10/11 08:53:49;;;;;;;32.97;17.25;;;16.70;99.90;;;;;;4881103;29;20056;-84
2023/10/11 08:56:15;;;;;;;39.70;18.33;;;16.20;99.90;;;;;;4880368;29;20048;-85
2023/10/11 08:58:41;;;;;;;33.10;17.65;;;16.20;99.90;;;;;;4887408;24;20055;-84
2023/10/11 09:01:10;;;;;;;32.63;17.83;;;16.20;99.90;;;;;;4881125;29;20687;-85
2023/10/11 09:03:41;;;;;;;33.03;18.83;;;16.20;99.90;;;;;;4880230;29;20057;-85
2023/10/11 09:06:21;;;;;;;37.15;19.30;;;16.30;99.90;;;;;;4880819;29;20056;-84
2023/10/11 09:08:47;;;;;;;36.28;18.88;;;16.70;99.90;;;;;;4912259;29;20211;-82
2023/10/11 09:11:28;;;;;;;34.28;17.67;;;16.80;99.90;;;;;;4879537;29;20049;-82
2023/10/11 09:14:09;;;;;;;36.92;18.92;;;16.60;99.90;;;;;;4880734;29;20052;-82
2023/10/11 09:16:35;;;;;;;35.53;19.25;;;16.40;99.90;;;;;;4880724;29;20091;-83
2023/10/11 09:19:06;;;;;;;43.45;20.30;;;16.80;99.90;;;;;;4880127;29;20084;-83
2023/10/11 09:21:35;;;;;;;43.30;21.83;;;16.20;99.90;;;;;;4880378;29;20477;-84
2023/10/11 09:24:03;;;;;;;38.72;20.83;;;16.50;99.90;;;;;;4880517;29;20104;-84
2023/10/11 09:26:36;;;;;;;42.25;21.05;;;16.10;99.90;;;;;;4879756;29;20059;-84
2023/10/11 09:29:04;;;;;;;43.60;21.00;;;16.30;99.90;;;;;;4880493;29;20133;-83
2023/10/11 09:31:31;;;;;;;40.78;21.70;;;16.10;99.90;;;;;;4879843;29;20505;-83
2023/10/11 09:34:02;;;;;;;39.58;21.27;;;16.20;99.90;;;;;;4880750;29;20095;-83
2023/10/11 09:36:28;;;;;;;41.72;20.75;;;16.30;99.90;;;;;;4881319;29;20501;-83
2023/10/11 09:38:55;;;;;;;39.83;20.10;;;16.50;99.90;;;;;;4883552;29;20120;-83
2023/10/11 09:41:25;;;;;;;45.35;21.80;;;16.20;99.90;;;;;;4900400;29;20040;-83
2023/10/11 09:43:59;;;;;;;38.83;20.70;;;16.20;99.90;;;;;;4884137;29;20548;-83
2023/10/11 09:46:29;;;;;;;42.13;20.42;;;16.50;99.90;;;;;;4883342;29;20056;-83
2023/10/11 09:49:12;;;;;;;42.85;21.25;;;16.20;99.90;;;;;;4884090;29;20055;-84
2023/10/11 09:51:41;;;;;;;41.00;20.27;;;16.20;99.90;;;;;;4884105;29;20091;-83
2023/10/11 09:54:14;;;;;;;38.63;20.38;;;16.90;99.90;;;;;;4883531;29;20108;-83
2023/10/11 09:56:50;;;;;;;40.10;20.83;;;16.70;99.90;;;;;;4884332;29;20099;-84
2023/10/11 09:59:27;;;;;;;40.50;19.73;;;16.20;99.90;;;;;;4883002;29;20064;-83
2023/10/11 10:02:02;;;;;;;44.13;22.08;;;16.20;99.90;;;;;;4883844;29;20107;-83
2023/10/11 10:04:50;;;;;;;41.65;21.27;;;16.20;99.90;;;;;;4883927;29;20067;-83
2023/10/11 10:07:25;;;;;;;35.97;21.05;;;16.20;99.90;;;;;;4882320;29;20080;-84
2023/10/11 10:10:00;;;;;;;39.15;21.08;;;16.20;99.90;;;;;;4906393;29;20143;-84
2023/10/11 10:12:40;;;;;;;40.47;20.20;;;16.30;99.90;;;;;;4882979;29;20052;-84
2023/10/11 10:15:13;;;;;;;39.70;20.45;;;16.20;99.90;;;;;;4883307;29;20045;-84
2023/10/11 10:18:00;;;;;;;44.40;21.17;;;16.30;99.90;;;;;;4883947;29;20056;-83
2023/10/11 10:20:38;;;;;;;39.85;21.33;;;16.30;99.90;;;;;;4882755;29;20080;-84
2023/10/11 10:23:16;;;;;;;38.35;20.50;;;16.30;99.90;;;;;;4865245;29;20528;-84
2023/10/11 10:25:46;;;;;;;41.38;22.38;;;16.40;99.90;;;;;;4864852;29;20151;-86
2023/10/11 10:28:36;;;;;;;40.92;20.48;;;16.30;99.90;;;;;;4863806;29;20045;-85
2023/10/11 10:31:19;;;;;;;39.30;21.25;;;16.40;99.90;;;;;;4881061;29;20489;-83
2023/10/11 10:34:06;;;;;;;39.78;20.48;;;16.40;99.90;;;;;;4882837;29;20037;-83
2023/10/11 10:36:31;;;;;;;40.25;19.13;;;16.40;99.90;;;;;;4880736;29;20520;-81
2023/10/11 10:39:00;;;;;;;35.90;18.70;;;16.40;99.90;;;;;;4882325;29;20052;-82
2023/10/11 10:41:37;;;;;;;40.70;20.98;;;16.70;99.90;;;;;;4880312;29;20164;-81
2023/10/11 10:44:10;;;;;;;33.58;19.30;;;16.50;99.90;;;;;;4876744;29;20052;-81
2023/10/11 10:46:45;;;;;;;42.45;19.77;;;17.20;99.90;;;;;;4896000;29;20040;-83
2023/10/11 10:49:11;;;;;;;35.85;19.75;;;16.80;99.90;;;;;;4880482;29;20079;-83
2023/10/11 10:51:37;;;;;;;37.38;18.92;;;16.80;99.90;;;;;;4878782;29;20493;-85
2023/10/11 10:54:14;;;;;;;33.75;19.02;;;16.80;99.90;;;;;;4882230;29;20045;-85
2023/10/11 10:56:47;;;;;;;37.13;18.92;;;16.90;99.90;;;;;;4879949;29;20117;-85
2023/10/11 10:59:14;;;;;;;33.50;19.02;;;17.00;99.90;;;;;;4881916;29;20056;-85
2023/10/11 11:01:44;;;;;;;35.42;17.63;;;17.20;99.90;;;;;;4882556;29;20053;-83
2023/10/11 11:04:12;;;;;;;30.27;17.17;;;17.20;99.90;;;;;;4882703;29;20048;-84
2023/10/11 11:06:45;;;;;;;32.60;16.08;;;17.30;99.90;;;;;;4882826;29;20052;-84
2023/10/11 11:09:29;;;;;;;29.13;14.85;;;17.40;99.90;;;;;;4883201;29;20128;-84
2023/10/11 11:12:09;;;;;;;28.50;14.30;;;17.60;99.90;;;;;;4881811;29;20068;-83
2023/10/11 11:14:34;;;;;;;23.35;13.80;;;17.60;99.90;;;;;;4933764;24;20048;-83
2023/10/11 11:17:09;;;;;;;28.02;13.48;;;18.10;99.90;;;;;;4900124;29;20404;-84
2023/10/11 11:19:35;;;;;;;28.38;13.68;;;17.80;99.90;;;;;;4900961;29;20517;-84
2023/10/11 11:22:12;;;;;;;27.63;14.60;;;17.80;99.90;;;;;;4901029;29;20055;-84
2023/10/11 11:24:41;;;;;;;24.67;14.27;;;18.20;99.90;;;;;;4900355;29;20044;-83
2023/10/11 11:27:25;;;;;;;26.15;15.25;;;18.00;99.90;;;;;;4887388;29;20052;-84
2023/10/11 11:29:52;;;;;;;31.30;15.43;;;18.10;99.90;;;;;;4916341;29;20127;-84
2023/10/11 11:32:36;;;;;;;26.10;14.25;;;18.50;99.90;;;;;;4915607;29;20052;-84
2023/10/11 11:35:09;;;;;;;26.33;13.80;;;18.50;99.90;;;;;;4900045;29;20051;-84
2023/10/11 11:38:01;;;;;;;25.23;12.77;;;18.50;99.90;;;;;;4897113;29;20044;-84
2023/10/11 11:40:46;;;;;;;26.25;14.30;;;18.40;99.90;;;;;;4919756;29;20056;-84
2023/10/11 11:43:17;;;;;;;25.38;13.57;;;18.60;99.90;;;;;;4897474;29;20492;-84
2023/10/11 11:45:44;;;;;;;27.90;12.90;;;18.60;99.90;;;;;;4930473;29;20066;-84
2023/10/11 11:48:11;;;;;;;26.95;13.90;;;18.70;99.90;;;;;;4931514;29;20093;-84
2023/10/11 11:50:38;;;;;;;24.63;13.00;;;19.00;99.90;;;;;;4900570;29;20106;-84
2023/10/11 11:53:05;;;;;;;29.55;13.80;;;18.50;99.90;;;;;;4892575;29;20139;-84
2023/10/11 11:55:35;;;;;;;23.75;14.02;;;18.40;99.90;;;;;;4916178;29;20044;-85
2023/10/11 11:58:16;;;;;;;25.38;13.73;;;18.20;99.90;;;;;;4900436;29;20048;-84
2023/10/11 12:01:08;;;;;;;27.63;13.10;;;18.10;99.90;;;;;;4899589;29;20051;-83
2023/10/11 12:04:00;;;;;;;26.55;14.32;;;18.10;99.90;;;;;;4899786;29;20048;-82
2023/10/11 12:06:26;;;;;;;25.50;13.93;;;18.10;99.90;;;;;;4898872;29;20135;-85
2023/10/11 12:08:57;;;;;;;25.33;14.35;;;18.50;99.90;;;;;;4900592;29;20048;-85
2023/10/11 12:11:33;;;;;;;24.95;14.40;;;18.00;99.90;;;;;;4898856;29;20048;-85
2023/10/11 12:14:03;;;;;;;25.60;13.63;;;18.40;99.90;;;;;;4930803;29;20052;-85
2023/10/11 12:16:31;;;;;;;25.70;12.88;;;18.20;99.90;;;;;;4900055;29;20059;-84
2023/10/11 12:19:00;;;;;;;27.65;13.48;;;18.60;99.90;;;;;;4931484;29;20084;-84
2023/10/11 12:21:27;;;;;;;26.55;11.60;;;18.40;99.90;;;;;;4899297;29;20047;-84
2023/10/11 12:23:52;;;;;;;19.77;11.00;;;18.50;99.90;;;;;;4927704;29;20500;-83
2023/10/11 12:26:33;;;;;;;19.50;9.75;;;18.60;99.90;;;;;;4899155;29;20043;-84
2023/10/11 12:29:03;;;;;;;18.45;8.90;;;18.80;99.90;;;;;;4920129;29;20107;-84
2023/10/11 12:31:29;;;;;;;21.23;8.70;;;18.80;99.90;;;;;;4898914;29;20044;-85
2023/10/11 12:33:55;;;;;;;18.02;7.72;;;18.90;99.90;;;;;;4906804;29;20047;-84
2023/10/11 12:36:21;;;;;;;17.90;7.47;;;19.00;99.90;;;;;;4898620;29;20482;-84
2023/10/11 12:38:47;;;;;;;17.63;6.65;;;19.00;99.90;;;;;;4906230;29;20054;-84
2023/10/11 12:41:15;;;;;;;20.73;8.85;;;19.10;99.90;;;;;;4898477;29;20040;-84
2023/10/11 12:43:41;;;;;;;19.00;9.07;;;19.30;99.90;;;;;;4899716;29;20480;-84
2023/10/11 12:46:06;;;;;;;18.73;9.38;;;19.70;99.90;;;;;;4899341;29;20115;-85
2023/10/11 12:48:32;;;;;;;18.45;9.60;;;19.70;99.90;;;;;;4898589;29;20403;-84
2023/10/11 12:50:58;;;;;;;23.33;9.68;;;19.80;99.90;;;;;;4899285;29;20095;-84
2023/10/11 12:53:28;;;;;;;18.10;9.07;;;19.80;99.90;;;;;;4896530;29;20045;-85
2023/10/11 12:55:57;;;;;;;19.33;9.48;;;20.10;99.90;;;;;;4898490;29;20123;-84
2023/10/11 12:58:38;;;;;;;17.48;9.43;;;19.80;99.90;;;;;;4895951;29;20059;-84
2023/10/11 13:04:37;;;;;;;18.42;8.70;;;19.60;99.90;;;;;;4869280;29;20273;-85
2023/10/11 13:07:10;;;;;;;16.67;8.02;;;19.60;99.90;;;;;;4876504;29;20085;-85
2023/10/11 13:09:36;;;;;;;22.48;8.70;;;19.50;99.90;;;;;;4887521;29;20056;-85
2023/10/11 13:12:03;;;;;;;15.48;7.90;;;19.50;99.90;;;;;;4896514;29;20044;-84
2023/10/11 13:14:29;;;;;;;18.80;8.32;;;19.50;99.90;;;;;;4922128;29;20057;-84
2023/10/11 13:17:00;;;;;;;17.60;8.55;;;19.50;99.90;;;;;;4922075;29;20444;-85
2023/10/11 13:19:27;;;;;;;20.02;9.07;;;19.50;99.90;;;;;;4914620;29;20044;-85
2023/10/11 13:21:56;;;;;;;16.35;7.80;;;19.60;99.90;;;;;;4899817;29;20060;-85
2023/10/11 13:24:22;;;;;;;17.45;8.27;;;19.60;99.90;;;;;;4898126;29;20047;-85
2023/10/11 13:26:52;;;;;;;18.77;8.55;;;19.50;99.90;;;;;;4898543;29;20052;-84
2023/10/11 13:29:18;;;;;;;15.52;7.82;;;19.50;99.90;;;;;;4917994;29;20043;-85
2023/10/11 13:31:46;;;;;;;15.20;8.10;;;19.80;99.90;;;;;;4931735;29;20047;-84
2023/10/11 13:34:28;;;;;;;16.83;8.00;;;19.30;99.90;;;;;;4894923;29;20063;-85
2023/10/11 13:36:57;;;;;;;17.67;7.82;;;19.30;99.90;;;;;;4897774;29;20040;-84
2023/10/11 13:39:25;;;;;;;15.18;7.53;;;19.20;99.90;;;;;;4897887;29;20135;-84
2023/10/11 13:42:15;;;;;;;17.35;7.22;;;19.20;99.90;;;;;;4898823;29;20485;-84
2023/10/11 13:44:43;;;;;;;18.77;7.80;;;19.20;99.90;;;;;;4893249;29;20404;-84
2023/10/11 13:47:33;;;;;;;15.85;7.60;;;19.20;99.90;;;;;;4898230;29;20103;-85
2023/10/11 13:49:59;;;;;;;15.50;8.00;;;19.20;99.90;;;;;;4895302;29;20449;-85
2023/10/11 13:52:46;;;;;;;20.10;8.80;;;19.20;99.90;;;;;;4896886;29;20063;-84
2023/10/11 13:55:11;;;;;;;20.05;9.27;;;19.20;99.90;;;;;;4897314;29;20058;-85
2023/10/11 13:57:52;;;;;;;14.68;7.80;;;19.20;99.90;;;;;;4922372;29;20041;-84
2023/10/11 14:03:41;;;;;;;19.05;8.25;;;18.90;99.90;;;;;;4896343;29;20509;-82
2023/10/11 14:06:31;;;;;;;18.50;8.23;;;19.40;99.90;;;;;;4897832;29;20052;-84
2023/10/11 14:08:57;;;;;;;17.85;8.68;;;19.50;99.90;;;;;;4912139;29;20576;-84
2023/10/11 14:11:38;;;;;;;18.35;8.55;;;19.70;99.90;;;;;;4898412;29;20040;-84
2023/10/11 14:14:09;;;;;;;24.02;9.32;;;19.60;99.90;;;;;;4897165;29;20048;-84
2023/10/11 14:16:44;;;;;;;17.45;8.40;;;19.70;99.90;;;;;;4900590;29;20139;-85